Terminal Aerodrome Forecast
Issued by NWS Sioux Falls, SD

Current Version | Previous Version | Text Only | Print | Product List | Glossary On
Versions: 1 2 3 4 5 6 7 8 9 10 11 12 13 14 15 16 17 18 19 20
243
FTUS43 KFSD 211721
TAFFSD
TAF
KFSD 211721Z 2118/2218 26005KT P6SM OVC008
     FM212000 27006KT P6SM OVC010
     FM220300 31004KT 5SM BR OVC010
     FM220500 31005KT 4SM BR OVC008
     FM220800 31006KT 2SM BR OVC003
     FM221700 31009KT P6SM OVC008=

USA.gov is the U.S. government's official web portal to all federal, state and local government web resources and services.